Isles of Scilly, United Kingdom
Current Conditions -  °F | °C
As of 5:50 PM on Thursday 23 Oct 2014 (Local Time) from EGHE Reporting Station
Broken Clouds Broken Clouds  
Wind Chill: 15°   Ceiling: 1400
Heat Index: 15°   Visibility: 2.1mi
Dew Point: 14°   Wind: 18mph
Humidity: 94%   Direction: 230°SW
Pressure: 30.06"   Gusts: NA
Location:  49.91°N, 6.31°W
Report Text: EGHE 231650Z 23016KT 3500 SCT008 BKN014 15/14 Q1018
Loading
Personal Weather Stations






























Interactive Weather Map
Tropical Storm Tracking
New forecast layout! Learn more

10-Day Weather Forecast

Advertisements
Track Severe Weather on mobile